Time;durP1;ratioP1;P1;durP2;ratioP2;P2;SDS_P1;SDS_P2;PMS_P1;PMS_P2;Temp;Humidity;BMP_temperature;BMP_pressure;BME280_temperature;BME280_humidity;BME280_pressure;Samples;Min_cycle;Max_cycle;Signal;HPM_P1;HPM_P2
2023/11/18 00:00:11;;;;;;;5.55;3.70;;;;;;;;;;6307526;22;20275;-87
2023/11/18 00:02:39;;;;;;;4.75;4.32;;;;;;;;;;6307598;22;20243;-88
2023/11/18 00:05:08;;;;;;;5.20;4.70;;;;;;;;;;6307218;22;20207;-88
2023/11/18 00:07:37;;;;;;;4.38;3.97;;;;;;;;;;6307304;22;20249;-88
2023/11/18 00:10:06;;;;;;;4.97;4.28;;;;;;;;;;6307544;22;20184;-88
2023/11/18 00:12:34;;;;;;;4.63;4.13;;;;;;;;;;6307759;22;20247;-87
2023/11/18 00:15:03;;;;;;;6.65;4.78;;;;;;;;;;6307200;22;20175;-87
2023/11/18 00:17:31;;;;;;;5.00;4.50;;;;;;;;;;6307630;22;20168;-87
2023/11/18 00:19:59;;;;;;;6.07;4.80;;;;;;;;;;6307074;22;20274;-88
2023/11/18 00:22:27;;;;;;;6.03;4.65;;;;;;;;;;6307834;22;20184;-87
2023/11/18 00:24:57;;;;;;;4.55;4.15;;;;;;;;;;6307371;22;20243;-87
2023/11/18 00:27:24;;;;;;;4.78;3.80;;;;;;;;;;6307190;22;20579;-87
2023/11/18 00:29:53;;;;;;;5.85;4.20;;;;;;;;;;6306881;22;20270;-87
2023/11/18 00:32:21;;;;;;;5.80;4.43;;;;;;;;;;6307582;22;20238;-88
2023/11/18 00:34:49;;;;;;;4.63;4.22;;;;;;;;;;6307438;22;20175;-87
2023/11/18 00:37:17;;;;;;;6.10;5.05;;;;;;;;;;6307171;22;20191;-88
2023/11/18 00:39:44;;;;;;;5.22;4.63;;;;;;;;;;6306860;22;20194;-87
2023/11/18 00:42:13;;;;;;;4.00;3.45;;;;;;;;;;6307088;22;20238;-88
2023/11/18 00:44:41;;;;;;;3.28;2.97;;;;;;;;;;6306823;22;20246;-87
2023/11/18 00:47:09;;;;;;;4.78;3.80;;;;;;;;;;6307204;22;20589;-87
2023/11/18 00:49:37;;;;;;;5.78;5.03;;;;;;;;;;6306960;22;20711;-88
2023/11/18 00:52:05;;;;;;;3.40;3.10;;;;;;;;;;6307097;22;20167;-88
2023/11/18 00:54:32;;;;;;;4.07;3.53;;;;;;;;;;6306797;22;20164;-86
2023/11/18 00:57:00;;;;;;;4.80;3.65;;;;;;;;;;6306767;22;20668;-88
2023/11/18 00:59:29;;;;;;;3.92;3.47;;;;;;;;;;6307199;22;20210;-87
2023/11/18 01:01:57;;;;;;;4.57;3.88;;;;;;;;;;6306697;22;20187;-86
2023/11/18 01:04:25;;;;;;;4.05;3.67;;;;;;;;;;6306641;22;20246;-86
2023/11/18 01:06:53;;;;;;;3.25;2.95;;;;;;;;;;6307235;22;20195;-87
2023/11/18 01:09:20;;;;;;;3.10;2.78;;;;;;;;;;6307280;22;20295;-88
2023/11/18 01:11:48;;;;;;;3.88;3.35;;;;;;;;;;6306880;22;20191;-87
2023/11/18 01:14:17;;;;;;;3.05;2.85;;;;;;;;;;6306835;22;20172;-87
2023/11/18 01:16:46;;;;;;;3.13;2.92;;;;;;;;;;6306692;22;20254;-87
2023/11/18 01:19:14;;;;;;;3.08;2.78;;;;;;;;;;6307092;22;20188;-87
2023/11/18 01:21:42;;;;;;;2.60;2.40;;;;;;;;;;6307193;22;20215;-88
2023/11/18 01:24:10;;;;;;;2.70;2.50;;;;;;;;;;6306490;22;20168;-88
2023/11/18 01:26:38;;;;;;;3.08;2.78;;;;;;;;;;6306826;22;20187;-87
2023/11/18 01:29:05;;;;;;;4.82;2.92;;;;;;;;;;6306430;22;20234;-87
2023/11/18 01:31:33;;;;;;;5.07;4.25;;;;;;;;;;6306735;22;20203;-88
2023/11/18 01:34:04;;;;;;;5.13;4.53;;;;;;;;;;6306294;22;20183;-87
2023/11/18 01:36:31;;;;;;;4.50;4.10;;;;;;;;;;6306851;22;20171;-87
2023/11/18 01:39:00;;;;;;;5.30;4.32;;;;;;;;;;6306393;22;20249;-86
2023/11/18 01:41:29;;;;;;;4.80;4.22;;;;;;;;;;6306601;22;20221;-88
2023/11/18 01:43:57;;;;;;;3.72;3.17;;;;;;;;;;6306363;22;20167;-87
2023/11/18 01:46:24;;;;;;;2.78;2.58;;;;;;;;;;6306754;22;20200;-87
2023/11/18 01:48:53;;;;;;;5.32;3.90;;;;;;;;;;6306851;22;20230;-88
2023/11/18 01:51:23;;;;;;;3.20;2.90;;;;;;;;;;6306186;22;20246;-88
2023/11/18 01:53:51;;;;;;;4.07;3.25;;;;;;;;;;6306583;22;20601;-87
2023/11/18 01:56:20;;;;;;;4.03;3.63;;;;;;;;;;6306647;22;20251;-87
2023/11/18 01:58:48;;;;;;;4.32;3.15;;;;;;;;;;6306429;22;20239;-87
2023/11/18 02:01:17;;;;;;;3.53;3.10;;;;;;;;;;6306594;22;20191;-87
2023/11/18 02:03:44;;;;;;;3.22;2.92;;;;;;;;;;6306559;22;20250;-87
2023/11/18 02:06:12;;;;;;;3.45;3.15;;;;;;;;;;6306470;22;20171;-86
2023/11/18 02:08:41;;;;;;;3.58;3.28;;;;;;;;;;6306263;22;20207;-87
2023/11/18 02:11:18;;;;;;;3.17;2.88;;;;;;;;;;6306797;22;20164;-88
2023/11/18 02:13:50;;;;;;;6.18;4.32;;;;;;;;;;6306893;22;20470;-87
2023/11/18 02:16:18;;;;;;;4.15;3.65;;;;;;;;;;6306442;22;20152;-87
2023/11/18 02:18:47;;;;;;;4.47;4.07;;;;;;;;;;6306618;22;20206;-87
2023/11/18 02:21:16;;;;;;;4.32;3.92;;;;;;;;;;6306583;22;20195;-87
2023/11/18 02:23:45;;;;;;;4.65;3.63;;;;;;;;;;6306668;22;20544;-87
2023/11/18 02:26:23;;;;;;;4.15;3.80;;;;;;;;;;6306421;22;20194;-88
2023/11/18 02:28:52;;;;;;;6.00;3.47;;;;;;;;;;6306321;22;20342;-87
2023/11/18 02:31:27;;;;;;;4.88;4.00;;;;;;;;;;6306249;22;20515;-88
2023/11/18 02:34:00;;;;;;;4.13;3.80;;;;;;;;;;6306647;22;20172;-88
2023/11/18 02:36:35;;;;;;;5.10;4.45;;;;;;;;;;6307935;22;20179;-88
2023/11/18 02:39:08;;;;;;;4.43;3.90;;;;;;;;;;6308256;22;20759;-88
2023/11/18 02:41:37;;;;;;;3.90;3.53;;;;;;;;;;6308508;22;20164;-88
2023/11/18 02:44:09;;;;;;;5.15;4.65;;;;;;;;;;6308391;22;20667;-87
2023/11/18 02:46:38;;;;;;;4.85;3.83;;;;;;;;;;6308021;22;20167;-87
2023/11/18 02:49:07;;;;;;;4.72;4.30;;;;;;;;;;6308386;22;20531;-88
2023/11/18 02:51:39;;;;;;;9.50;4.20;;;;;;;;;;6307945;22;20222;-88
2023/11/18 02:54:10;;;;;;;4.80;4.30;;;;;;;;;;6307983;22;20242;-86
2023/11/18 02:56:39;;;;;;;5.10;4.60;;;;;;;;;;6308408;22;20160;-87
2023/11/18 02:59:07;;;;;;;4.63;4.20;;;;;;;;;;6308179;22;20188;-88
2023/11/18 03:01:34;;;;;;;7.00;4.50;;;;;;;;;;6308161;22;20503;-87
2023/11/18 03:04:02;;;;;;;3.58;3.28;;;;;;;;;;6308117;22;20250;-87
2023/11/18 03:06:30;;;;;;;3.90;3.25;;;;;;;;;;6307979;22;20187;-88
2023/11/18 03:08:57;;;;;;;3.40;3.10;;;;;;;;;;6307696;22;20206;-88
2023/11/18 03:11:28;;;;;;;4.22;3.13;;;;;;;;;;6308354;22;20644;-88
2023/11/18 03:13:57;;;;;;;3.72;3.42;;;;;;;;;;6307907;22;20156;-87
2023/11/18 03:16:25;;;;;;;3.80;3.50;;;;;;;;;;6308067;22;20557;-87
2023/11/18 03:18:54;;;;;;;4.43;3.33;;;;;;;;;;6307759;22;20208;-87
2023/11/18 03:21:22;;;;;;;3.53;3.22;;;;;;;;;;6307657;22;20180;-87
2023/11/18 03:23:50;;;;;;;2.92;2.72;;;;;;;;;;6308129;22;20168;-88
2023/11/18 03:26:17;;;;;;;3.08;2.75;;;;;;;;;;6308459;22;20618;-87
2023/11/18 03:28:45;;;;;;;4.45;3.10;;;;;;;;;;6307879;22;20231;-87
2023/11/18 03:31:15;;;;;;;4.45;3.85;;;;;;;;;;6307840;22;20655;-87
2023/11/18 03:33:43;;;;;;;4.03;3.53;;;;;;;;;;6307679;22;20187;-87
2023/11/18 03:36:12;;;;;;;4.47;3.95;;;;;;;;;;6307941;22;20204;-87
2023/11/18 03:38:40;;;;;;;4.65;4.20;;;;;;;;;;6307962;22;20186;-88
2023/11/18 03:41:08;;;;;;;4.80;4.40;;;;;;;;;;6307636;22;20242;-88
2023/11/18 03:43:36;;;;;;;4.80;4.20;;;;;;;;;;6307540;22;20164;-87
2023/11/18 03:46:04;;;;;;;3.08;2.78;;;;;;;;;;6307764;22;20239;-88
2023/11/18 03:48:33;;;;;;;2.78;2.58;;;;;;;;;;6307244;22;20188;-88
2023/11/18 03:51:03;;;;;;;4.72;2.95;;;;;;;;;;6307603;22;20207;-86
2023/11/18 03:53:33;;;;;;;6.00;4.55;;;;;;;;;;6308103;22;20167;-88
2023/11/18 03:56:02;;;;;;;5.07;3.55;;;;;;;;;;6307917;22;20163;-87
2023/11/18 03:58:29;;;;;;;3.17;2.88;;;;;;;;;;6307494;22;20218;-87
2023/11/18 04:00:57;;;;;;;3.78;3.35;;;;;;;;;;6307698;22;20559;-87
2023/11/18 04:03:25;;;;;;;4.35;3.95;;;;;;;;;;6307738;22;20174;-87
2023/11/18 04:05:54;;;;;;;3.58;3.28;;;;;;;;;;6307877;22;20172;-87
2023/11/18 04:08:21;;;;;;;4.53;3.88;;;;;;;;;;6307303;22;20279;-87
2023/11/18 04:10:49;;;;;;;2.38;2.17;;;;;;;;;;6307447;22;20195;-87
2023/11/18 04:13:16;;;;;;;2.00;1.90;;;;;;;;;;6307409;22;20187;-87
2023/11/18 04:15:45;;;;;;;1.70;1.60;;;;;;;;;;6308225;22;20486;-87
2023/11/18 04:18:12;;;;;;;2.25;2.05;;;;;;;;;;6307741;22;20168;-87
2023/11/18 04:20:40;;;;;;;3.17;2.55;;;;;;;;;;6307247;22;20274;-87
2023/11/18 04:23:11;;;;;;;2.22;2.03;;;;;;;;;;6307572;22;20636;-87
2023/11/18 04:25:39;;;;;;;2.47;2.22;;;;;;;;;;6307752;22;20172;-87
2023/11/18 04:28:06;;;;;;;2.70;2.50;;;;;;;;;;6307301;22;20191;-87
2023/11/18 04:30:34;;;;;;;3.03;2.72;;;;;;;;;;6307445;22;20195;-86
2023/11/18 04:33:03;;;;;;;3.35;2.70;;;;;;;;;;6307366;22;20210;-86
2023/11/18 04:35:31;;;;;;;4.30;3.42;;;;;;;;;;6307404;22;20199;-87
2023/11/18 04:37:59;;;;;;;3.38;2.20;;;;;;;;;;6307464;22;20247;-87
2023/11/18 04:40:28;;;;;;;3.35;1.85;;;;;;;;;;6307231;22;20506;-87
2023/11/18 04:42:56;;;;;;;2.22;2.03;;;;;;;;;;6307234;22;20208;-86
2023/11/18 04:45:23;;;;;;;2.67;2.47;;;;;;;;;;6307301;22;20553;-86
2023/11/18 04:47:51;;;;;;;2.38;2.17;;;;;;;;;;6307336;22;20210;-86
2023/11/18 04:50:19;;;;;;;3.58;2.78;;;;;;;;;;6307257;22;20191;-87
2023/11/18 04:52:46;;;;;;;2.72;2.53;;;;;;;;;;6307214;22;20560;-87
2023/11/18 04:55:14;;;;;;;3.45;2.58;;;;;;;;;;6306899;22;20577;-87
2023/11/18 04:57:43;;;;;;;3.25;2.95;;;;;;;;;;6306967;22;20214;-87
2023/11/18 05:00:16;;;;;;;2.75;2.22;;;;;;;;;;6307620;22;20194;-87
2023/11/18 05:02:44;;;;;;;2.45;2.13;;;;;;;;;;6307253;22;20164;-87
2023/11/18 05:05:12;;;;;;;2.42;2.15;;;;;;;;;;6306982;22;20249;-87
2023/11/18 05:07:39;;;;;;;2.45;1.85;;;;;;;;;;6307327;22;20198;-87
2023/11/18 05:10:09;;;;;;;2.00;1.90;;;;;;;;;;6306902;22;20202;-87
2023/11/18 05:12:36;;;;;;;1.55;1.50;;;;;;;;;;6307324;22;20167;-87
2023/11/18 05:15:07;;;;;;;3.28;2.90;;;;;;;;;;6307282;22;20172;-87
2023/11/18 05:17:35;;;;;;;2.72;2.53;;;;;;;;;;6307110;22;20602;-87
2023/11/18 05:20:03;;;;;;;2.53;2.33;;;;;;;;;;6306949;22;20659;-87
2023/11/18 05:22:31;;;;;;;2.42;2.17;;;;;;;;;;6307215;22;20171;-87
2023/11/18 05:24:59;;;;;;;2.55;2.35;;;;;;;;;;6306897;22;20592;-87
2023/11/18 05:27:27;;;;;;;3.92;3.60;;;;;;;;;;6306954;22;20224;-87
2023/11/18 05:29:55;;;;;;;2.60;2.40;;;;;;;;;;6306940;22;20712;-87
2023/11/18 05:32:25;;;;;;;3.35;3.05;;;;;;;;;;6306295;22;20241;-86
2023/11/18 05:34:54;;;;;;;2.95;2.50;;;;;;;;;;6306770;22;20163;-86
2023/11/18 05:37:22;;;;;;;1.98;1.88;;;;;;;;;;6307080;22;20179;-87
2023/11/18 05:39:58;;;;;;;2.60;2.40;;;;;;;;;;6307219;22;20207;-87
2023/11/18 05:42:26;;;;;;;4.60;3.42;;;;;;;;;;6307427;22;20546;-88
2023/11/18 05:44:58;;;;;;;4.00;3.35;;;;;;;;;;6307075;22;20184;-87
2023/11/18 05:47:28;;;;;;;2.80;2.60;;;;;;;;;;6307483;22;20175;-87
2023/11/18 05:49:56;;;;;;;3.78;3.15;;;;;;;;;;6307390;22;20191;-87
2023/11/18 05:52:24;;;;;;;3.47;3.17;;;;;;;;;;6307591;22;20195;-87
2023/11/18 05:54:52;;;;;;;3.10;2.80;;;;;;;;;;6307255;22;20223;-88
2023/11/18 05:57:19;;;;;;;2.97;2.78;;;;;;;;;;6307358;22;20221;-87
2023/11/18 05:59:48;;;;;;;3.38;3.10;;;;;;;;;;6307266;22;20266;-87
2023/11/18 06:02:18;;;;;;;4.07;3.67;;;;;;;;;;6306916;22;20254;-87
2023/11/18 06:04:47;;;;;;;4.93;3.95;;;;;;;;;;6306907;22;20264;-87
2023/11/18 06:07:14;;;;;;;4.05;3.58;;;;;;;;;;6307188;22;20202;-87
2023/11/18 06:09:43;;;;;;;4.55;3.40;;;;;;;;;;6307011;22;20208;-87
2023/11/18 06:12:11;;;;;;;2.70;2.50;;;;;;;;;;6308985;22;20174;-86
2023/11/18 06:14:38;;;;;;;4.47;3.10;;;;;;;;;;6309744;22;20172;-87
2023/11/18 06:17:07;;;;;;;3.50;2.42;;;;;;;;;;6310080;22;20199;-87
2023/11/18 06:19:35;;;;;;;2.83;2.53;;;;;;;;;;6309554;22;20230;-88
2023/11/18 06:22:05;;;;;;;2.55;2.35;;;;;;;;;;6309315;22;20191;-87
2023/11/18 06:24:33;;;;;;;3.10;2.90;;;;;;;;;;6309608;22;20167;-87
2023/11/18 06:27:01;;;;;;;5.53;5.03;;;;;;;;;;6309096;22;20509;-88
2023/11/18 06:29:29;;;;;;;5.68;3.28;;;;;;;;;;6308913;22;20272;-87
2023/11/18 06:31:57;;;;;;;4.35;3.97;;;;;;;;;;6308969;22;20516;-88
2023/11/18 06:34:26;;;;;;;5.95;4.43;;;;;;;;;;6309044;22;20509;-87
2023/11/18 06:36:56;;;;;;;4.00;3.63;;;;;;;;;;6309990;22;20608;-87
2023/11/18 06:39:29;;;;;;;5.18;3.95;;;;;;;;;;6309486;22;20591;-87
2023/11/18 06:41:58;;;;;;;3.90;3.58;;;;;;;;;;6309714;22;20167;-86
2023/11/18 06:44:25;;;;;;;15.43;9.27;;;;;;;;;;6309556;22;20174;-86
2023/11/18 06:46:53;;;;;;;10.55;7.28;;;;;;;;;;6309752;22;20175;-87
2023/11/18 06:49:20;;;;;;;8.32;5.95;;;;;;;;;;6309218;22;20231;-87
2023/11/18 06:51:48;;;;;;;5.93;5.30;;;;;;;;;;6309567;22;20175;-87
2023/11/18 06:54:16;;;;;;;4.18;3.63;;;;;;;;;;6309901;22;20250;-88
2023/11/18 06:56:45;;;;;;;5.45;3.72;;;;;;;;;;6309298;22;20251;-88
2023/11/18 06:59:14;;;;;;;6.95;4.97;;;;;;;;;;6308850;22;20219;-87
2023/11/18 07:01:42;;;;;;;6.47;4.40;;;;;;;;;;6308986;22;20247;-88
2023/11/18 07:04:10;;;;;;;5.30;4.78;;;;;;;;;;6309075;22;20181;-87
2023/11/18 07:06:38;;;;;;;5.25;4.47;;;;;;;;;;6308775;22;20617;-87
2023/11/18 07:09:12;;;;;;;5.43;4.60;;;;;;;;;;6308402;22;20184;-87
2023/11/18 07:11:41;;;;;;;4.63;4.15;;;;;;;;;;6308946;22;20616;-87
2023/11/18 07:14:12;;;;;;;5.03;4.53;;;;;;;;;;6311068;22;20236;-88
2023/11/18 07:16:40;;;;;;;5.00;4.50;;;;;;;;;;6312589;22;20167;-87
2023/11/18 07:19:07;;;;;;;4.40;4.00;;;;;;;;;;6308899;22;20587;-88
2023/11/18 07:21:35;;;;;;;5.82;4.32;;;;;;;;;;6307916;22;20214;-88
2023/11/18 07:24:03;;;;;;;4.40;4.00;;;;;;;;;;6308834;22;20199;-87
2023/11/18 07:26:31;;;;;;;4.07;3.70;;;;;;;;;;6308552;22;20180;-86
2023/11/18 07:28:59;;;;;;;6.53;5.63;;;;;;;;;;6308630;22;20226;-86
2023/11/18 07:31:28;;;;;;;6.35;5.78;;;;;;;;;;6308429;22;20223;-86
2023/11/18 07:33:56;;;;;;;6.03;5.43;;;;;;;;;;6308515;22;20178;-87
2023/11/18 07:36:24;;;;;;;4.70;4.28;;;;;;;;;;6308749;22;20688;-87
2023/11/18 07:38:51;;;;;;;5.00;4.55;;;;;;;;;;6308305;22;20183;-87
2023/11/18 07:41:24;;;;;;;11.07;7.18;;;;;;;;;;6308505;22;20621;-87
2023/11/18 07:43:54;;;;;;;7.00;6.30;;;;;;;;;;6308356;22;20614;-87
2023/11/18 07:46:22;;;;;;;5.80;5.20;;;;;;;;;;6308303;22;20196;-87
2023/11/18 07:48:51;;;;;;;4.95;4.45;;;;;;;;;;6308212;22;20188;-87
2023/11/18 07:51:21;;;;;;;5.00;4.50;;;;;;;;;;6307915;22;20187;-87
2023/11/18 07:53:49;;;;;;;6.93;5.63;;;;;;;;;;6308330;22;20171;-86
2023/11/18 07:56:17;;;;;;;4.50;4.10;;;;;;;;;;6307720;22;20566;-87
2023/11/18 07:58:46;;;;;;;4.22;3.92;;;;;;;;;;6307962;22;20597;-87
2023/11/18 08:01:16;;;;;;;4.03;3.72;;;;;;;;;;6308147;22;20175;-87
2023/11/18 08:03:43;;;;;;;6.15;5.00;;;;;;;;;;6307771;22;20172;-88
2023/11/18 08:06:13;;;;;;;6.80;5.40;;;;;;;;;;6308452;22;20218;-86
2023/11/18 08:08:41;;;;;;;5.35;4.85;;;;;;;;;;6308218;22;20628;-87
2023/11/18 08:11:11;;;;;;;11.13;8.52;;;;;;;;;;6308249;22;20511;-87
2023/11/18 08:13:38;;;;;;;7.85;7.15;;;;;;;;;;6308772;22;20748;-87
2023/11/18 08:16:08;;;;;;;9.10;8.20;;;;;;;;;;6307885;22;20187;-87
2023/11/18 08:18:36;;;;;;;8.45;7.47;;;;;;;;;;6307899;22;20174;-87
2023/11/18 08:21:06;;;;;;;7.00;5.90;;;;;;;;;;6307639;22;20180;-87
2023/11/18 08:23:35;;;;;;;7.03;5.95;;;;;;;;;;6307677;22;20167;-87
2023/11/18 08:26:03;;;;;;;8.48;6.28;;;;;;;;;;6307695;22;20167;-87
2023/11/18 08:28:31;;;;;;;8.30;6.50;;;;;;;;;;6307420;22;20175;-86
2023/11/18 08:31:00;;;;;;;6.55;5.55;;;;;;;;;;6307467;22;20195;-88
2023/11/18 08:33:28;;;;;;;7.65;6.13;;;;;;;;;;6307328;22;20172;-87
2023/11/18 08:35:56;;;;;;;6.65;5.90;;;;;;;;;;6307387;22;20168;-88
2023/11/18 08:38:24;;;;;;;7.55;6.05;;;;;;;;;;6307254;22;20242;-88
2023/11/18 08:40:55;;;;;;;8.65;6.93;;;;;;;;;;6307427;22;20203;-87
2023/11/18 08:43:22;;;;;;;6.22;5.63;;;;;;;;;;6307674;22;20164;-88
2023/11/18 08:45:50;;;;;;;6.63;6.03;;;;;;;;;;6307684;22;20549;-87
2023/11/18 08:48:18;;;;;;;8.63;5.70;;;;;;;;;;6307538;22;20218;-87
2023/11/18 08:50:46;;;;;;;9.48;7.68;;;;;;;;;;6307095;22;20630;-86
2023/11/18 08:53:17;;;;;;;9.82;7.15;;;;;;;;;;6307215;22;20255;-87
2023/11/18 08:55:50;;;;;;;8.70;6.70;;;;;;;;;;6307102;22;20164;-87
2023/11/18 08:58:21;;;;;;;11.07;8.07;;;;;;;;;;6306707;22;20233;-86
2023/11/18 09:00:52;;;;;;;7.75;6.30;;;;;;;;;;6306592;22;20243;-87
2023/11/18 09:03:35;;;;;;;9.45;6.60;;;;;;;;;;6307012;22;20481;-87
2023/11/18 09:06:05;;;;;;;7.05;5.97;;;;;;;;;;6307025;22;20170;-87
2023/11/18 09:08:35;;;;;;;7.15;5.88;;;;;;;;;;6306359;22;20178;-87
2023/11/18 09:11:05;;;;;;;7.75;6.25;;;;;;;;;;6306546;22;20186;-86
2023/11/18 09:13:35;;;;;;;7.35;6.40;;;;;;;;;;6306496;22;20174;-86
2023/11/18 09:16:08;;;;;;;9.32;6.50;;;;;;;;;;6306514;22;20547;-86
2023/11/18 09:18:36;;;;;;;7.43;6.20;;;;;;;;;;6306602;22;20164;-86
2023/11/18 09:21:05;;;;;;;6.35;5.32;;;;;;;;;;6306715;22;20693;-86
2023/11/18 09:23:35;;;;;;;6.15;5.40;;;;;;;;;;6306989;22;20179;-87
2023/11/18 09:26:07;;;;;;;6.22;5.40;;;;;;;;;;6306883;22;20175;-86
2023/11/18 09:28:37;;;;;;;6.80;5.10;;;;;;;;;;6306861;22;20164;-86
2023/11/18 09:31:05;;;;;;;7.68;5.82;;;;;;;;;;6306365;22;20687;-87
2023/11/18 09:33:34;;;;;;;4.38;3.97;;;;;;;;;;6307073;22;20172;-87
2023/11/18 09:36:07;;;;;;;5.22;4.72;;;;;;;;;;6306486;22;20194;-86
2023/11/18 09:38:36;;;;;;;4.28;3.83;;;;;;;;;;6306889;22;20157;-87
2023/11/18 09:41:07;;;;;;;4.55;3.95;;;;;;;;;;6306469;22;20207;-85
2023/11/18 09:43:42;;;;;;;4.45;4.05;;;;;;;;;;6307013;22;20195;-87
2023/11/18 09:46:13;;;;;;;5.82;4.30;;;;;;;;;;6308314;22;20152;-87
2023/11/18 09:48:47;;;;;;;6.28;5.10;;;;;;;;;;6308850;22;20171;-86
2023/11/18 09:51:21;;;;;;;5.95;5.03;;;;;;;;;;6308796;22;20257;-86
2023/11/18 09:53:53;;;;;;;5.53;4.20;;;;;;;;;;6308461;22;20238;-87
2023/11/18 09:56:37;;;;;;;4.90;4.38;;;;;;;;;;6308903;22;20163;-87
2023/11/18 09:59:16;;;;;;;5.50;4.90;;;;;;;;;;6308719;22;20202;-86
2023/11/18 10:01:46;;;;;;;5.70;4.65;;;;;;;;;;6308615;22;20159;-88
2023/11/18 10:04:17;;;;;;;5.38;3.97;;;;;;;;;;6308709;22;20180;-87
2023/11/18 10:06:47;;;;;;;5.03;3.67;;;;;;;;;;6308636;22;20168;-87
2023/11/18 10:09:19;;;;;;;5.15;2.78;;;;;;;;;;6308650;22;20215;-87
2023/11/18 10:11:49;;;;;;;3.28;2.65;;;;;;;;;;6308394;22;20524;-86
2023/11/18 10:14:18;;;;;;;3.75;2.83;;;;;;;;;;6308409;22;20188;-86
2023/11/18 10:16:47;;;;;;;3.47;3.05;;;;;;;;;;6308140;22;20210;-86
2023/11/18 10:19:17;;;;;;;3.00;2.70;;;;;;;;;;6308468;22;20183;-85
2023/11/18 10:21:48;;;;;;;4.07;3.15;;;;;;;;;;6308383;22;20180;-86
2023/11/18 10:24:19;;;;;;;3.17;2.88;;;;;;;;;;6308205;22;20164;-87
2023/11/18 10:26:55;;;;;;;3.05;2.85;;;;;;;;;;6308833;22;20209;-88
2023/11/18 10:29:27;;;;;;;3.55;3.25;;;;;;;;;;6308671;22;20373;-86
2023/11/18 10:32:09;;;;;;;2.80;2.47;;;;;;;;;;6308306;22;20263;-86
2023/11/18 10:34:37;;;;;;;3.05;2.75;;;;;;;;;;6308393;22;20501;-86
2023/11/18 10:37:06;;;;;;;3.13;2.83;;;;;;;;;;6308536;22;20221;-85
2023/11/18 10:39:35;;;;;;;3.08;2.63;;;;;;;;;;6308560;22;20192;-86
2023/11/18 10:42:03;;;;;;;3.22;2.92;;;;;;;;;;6308203;22;20640;-87
2023/11/18 10:44:33;;;;;;;3.17;2.88;;;;;;;;;;6308310;22;20176;-86
2023/11/18 10:47:01;;;;;;;2.90;2.63;;;;;;;;;;6308599;22;20644;-87
2023/11/18 10:49:31;;;;;;;3.22;2.92;;;;;;;;;;6308272;22;20394;-86
2023/11/18 10:52:06;;;;;;;2.90;2.60;;;;;;;;;;6308532;22;20184;-86
2023/11/18 10:54:34;;;;;;;3.60;3.33;;;;;;;;;;6308264;22;20676;-86
2023/11/18 10:57:07;;;;;;;2.95;2.65;;;;;;;;;;6307937;22;20172;-87
2023/11/18 10:59:36;;;;;;;3.20;2.90;;;;;;;;;;6308483;22;20195;-86
2023/11/18 11:02:23;;;;;;;3.92;3.60;;;;;;;;;;6308196;22;20183;-87
2023/11/18 11:04:52;;;;;;;4.18;3.22;;;;;;;;;;6308518;22;20209;-86
2023/11/18 11:07:23;;;;;;;4.00;3.53;;;;;;;;;;6308733;22;20247;-86
2023/11/18 11:09:56;;;;;;;3.35;3.05;;;;;;;;;;6308448;22;20194;-86
2023/11/18 11:12:26;;;;;;;5.25;4.70;;;;;;;;;;6308189;22;20199;-86
2023/11/18 11:15:00;;;;;;;3.58;2.90;;;;;;;;;;6308389;22;20166;-87
2023/11/18 11:17:34;;;;;;;4.03;3.63;;;;;;;;;;6308249;22;20199;-87
2023/11/18 11:20:17;;;;;;;4.43;4.00;;;;;;;;;;6308499;22;20196;-87
2023/11/18 11:22:53;;;;;;;4.40;3.85;;;;;;;;;;6308580;22;20175;-88
2023/11/18 11:25:26;;;;;;;3.55;3.25;;;;;;;;;;6308594;22;20180;-88
2023/11/18 11:28:02;;;;;;;3.90;3.53;;;;;;;;;;6307834;22;20168;-86
2023/11/18 11:30:39;;;;;;;3.40;3.10;;;;;;;;;;6308819;22;20541;-87
2023/11/18 11:33:16;;;;;;;4.30;3.85;;;;;;;;;;6308837;22;20180;-88
2023/11/18 11:35:57;;;;;;;4.97;4.47;;;;;;;;;;6308932;22;20187;-87
2023/11/18 11:38:26;;;;;;;5.07;4.20;;;;;;;;;;6309116;22;20175;-86
2023/11/18 11:40:55;;;;;;;4.22;3.83;;;;;;;;;;6308631;22;20176;-86
2023/11/18 11:43:24;;;;;;;3.55;3.25;;;;;;;;;;6308652;22;20172;-86
2023/11/18 11:45:55;;;;;;;4.22;3.65;;;;;;;;;;6307871;22;20242;-85
2023/11/18 11:48:27;;;;;;;4.75;4.18;;;;;;;;;;6307878;22;20673;-87
2023/11/18 11:51:20;;;;;;;5.53;4.65;;;;;;;;;;6307699;22;20163;-86
2023/11/18 11:53:52;;;;;;;5.40;4.00;;;;;;;;;;6307495;22;20308;-86
2023/11/18 11:56:24;;;;;;;4.72;4.22;;;;;;;;;;6307786;22;20439;-86
2023/11/18 11:58:53;;;;;;;5.28;4.55;;;;;;;;;;6307735;22;20196;-87
2023/11/18 12:01:32;;;;;;;5.47;4.97;;;;;;;;;;6307464;22;20179;-86
2023/11/18 12:04:05;;;;;;;5.90;4.95;;;;;;;;;;6307959;22;20156;-86
2023/11/18 12:06:35;;;;;;;5.38;4.55;;;;;;;;;;6308234;22;20475;-86
2023/11/18 12:09:06;;;;;;;6.65;5.07;;;;;;;;;;6307295;22;20192;-86
2023/11/18 12:11:39;;;;;;;5.13;4.63;;;;;;;;;;6307122;22;20175;-86
2023/11/18 12:14:24;;;;;;;5.10;4.47;;;;;;;;;;6307657;22;20180;-86
2023/11/18 12:17:09;;;;;;;5.72;5.18;;;;;;;;;;6307311;22;20168;-86
2023/11/18 12:19:46;;;;;;;5.68;4.60;;;;;;;;;;6307787;22;20195;-86
2023/11/18 12:22:17;;;;;;;7.55;4.68;;;;;;;;;;6306994;22;20175;-87
2023/11/18 12:25:33;;;;;;;6.78;5.32;;;;;;;;;;6306957;22;20601;-86
2023/11/18 12:28:09;;;;;;;5.60;5.10;;;;;;;;;;6307607;22;20247;-87
2023/11/18 12:30:51;;;;;;;9.50;8.30;;;;;;;;;;6307451;22;20191;-87
2023/11/18 12:33:23;;;;;;;6.47;5.88;;;;;;;;;;6308398;22;20558;-86
2023/11/18 12:37:07;;;;;;;5.10;4.60;;;;;;;;;;6310764;22;20168;-87
2023/11/18 12:40:36;;;;;;;9.35;7.15;;;;;;;;;;6307032;22;20195;-86
2023/11/18 12:43:06;;;;;;;7.05;5.85;;;;;;;;;;6276633;22;20239;-87
2023/11/18 12:45:53;;;;;;;5.85;5.25;;;;;;;;;;6307815;22;20168;-87
2023/11/18 12:48:26;;;;;;;7.47;6.65;;;;;;;;;;6306912;22;20182;-86
2023/11/18 12:50:55;;;;;;;7.55;6.07;;;;;;;;;;6306898;22;20612;-86
2023/11/18 12:53:25;;;;;;;8.30;6.63;;;;;;;;;;6306911;22;20192;-87
2023/11/18 12:55:54;;;;;;;7.03;6.20;;;;;;;;;;6306659;22;20248;-86
2023/11/18 12:58:23;;;;;;;7.70;6.90;;;;;;;;;;6307295;22;20254;-88
2023/11/18 13:00:50;;;;;;;8.38;7.03;;;;;;;;;;6306721;22;20164;-86
2023/11/18 13:03:19;;;;;;;9.98;7.93;;;;;;;;;;6306829;22;20556;-86
2023/11/18 13:05:48;;;;;;;9.93;8.18;;;;;;;;;;6306660;22;20225;-87
2023/11/18 13:08:16;;;;;;;7.55;6.03;;;;;;;;;;6306554;22;20254;-87
2023/11/18 13:10:44;;;;;;;8.43;6.72;;;;;;;;;;6306445;22;20715;-87
2023/11/18 13:13:17;;;;;;;9.02;8.13;;;;;;;;;;6306398;22;20198;-87
2023/11/18 13:15:45;;;;;;;8.63;7.25;;;;;;;;;;6306467;22;20156;-87
2023/11/18 13:18:12;;;;;;;12.52;8.95;;;;;;;;;;6306373;22;20172;-88
2023/11/18 13:20:40;;;;;;;9.85;8.18;;;;;;;;;;6306605;22;20250;-87
2023/11/18 13:23:12;;;;;;;11.07;8.80;;;;;;;;;;6306887;22;20250;-88
2023/11/18 13:25:41;;;;;;;12.95;9.13;;;;;;;;;;6306775;22;20199;-86
2023/11/18 13:28:10;;;;;;;11.20;8.85;;;;;;;;;;6306637;22;20503;-88
2023/11/18 13:30:38;;;;;;;8.55;7.65;;;;;;;;;;6306310;22;20274;-86
2023/11/18 13:33:07;;;;;;;11.05;8.52;;;;;;;;;;6306000;22;20640;-87
2023/11/18 13:35:35;;;;;;;9.60;8.15;;;;;;;;;;6306359;22;20167;-87
2023/11/18 13:38:04;;;;;;;10.52;8.27;;;;;;;;;;6306491;22;20168;-87
2023/11/18 13:40:46;;;;;;;9.38;8.35;;;;;;;;;;6306626;22;20643;-87
2023/11/18 13:43:15;;;;;;;11.18;9.63;;;;;;;;;;6306574;22;20152;-86
2023/11/18 13:45:43;;;;;;;10.30;8.88;;;;;;;;;;6306523;22;20624;-86
2023/11/18 13:48:13;;;;;;;9.85;8.48;;;;;;;;;;6306396;22;20571;-87
2023/11/18 13:50:42;;;;;;;12.27;9.52;;;;;;;;;;6306713;22;20198;-87
2023/11/18 13:53:10;;;;;;;8.73;7.85;;;;;;;;;;6306338;22;20270;-86
2023/11/18 13:55:38;;;;;;;8.90;8.00;;;;;;;;;;6306429;22;20182;-86
2023/11/18 13:58:10;;;;;;;10.38;9.27;;;;;;;;;;6306567;22;20175;-86
2023/11/18 14:00:37;;;;;;;12.13;9.02;;;;;;;;;;6306147;22;20266;-85
2023/11/18 14:03:07;;;;;;;9.82;8.80;;;;;;;;;;6306322;22;20246;-86
2023/11/18 14:05:37;;;;;;;9.60;8.48;;;;;;;;;;6306441;22;20179;-86
2023/11/18 14:08:08;;;;;;;9.65;8.38;;;;;;;;;;6306074;22;20168;-86
2023/11/18 14:10:38;;;;;;;11.10;8.98;;;;;;;;;;6306240;22;20192;-86
2023/11/18 14:13:09;;;;;;;9.43;8.40;;;;;;;;;;6306077;22;20558;-86
2023/11/18 14:15:36;;;;;;;10.35;9.07;;;;;;;;;;6306153;22;20596;-87
2023/11/18 14:18:07;;;;;;;11.20;9.50;;;;;;;;;;6306044;22;20196;-86
2023/11/18 14:20:35;;;;;;;8.13;7.10;;;;;;;;;;6305721;22;20200;-86
2023/11/18 14:23:03;;;;;;;9.40;7.80;;;;;;;;;;6305987;22;20176;-86
2023/11/18 14:25:31;;;;;;;10.07;7.93;;;;;;;;;;6305824;22;20243;-86
2023/11/18 14:27:59;;;;;;;6.72;5.75;;;;;;;;;;6306551;22;20240;-86
2023/11/18 14:30:28;;;;;;;6.55;5.95;;;;;;;;;;6305983;22;20266;-87
2023/11/18 14:32:56;;;;;;;6.50;5.57;;;;;;;;;;6310328;22;20643;-87
2023/11/18 14:35:23;;;;;;;9.27;7.32;;;;;;;;;;6307735;22;20644;-87
2023/11/18 14:37:51;;;;;;;6.63;5.97;;;;;;;;;;6311148;22;20175;-87
2023/11/18 14:40:19;;;;;;;7.93;7.05;;;;;;;;;;6310729;22;20242;-87
2023/11/18 14:42:48;;;;;;;6.57;5.97;;;;;;;;;;6308167;22;20172;-87
2023/11/18 14:45:17;;;;;;;6.20;5.35;;;;;;;;;;6308549;22;20168;-86
2023/11/18 14:47:47;;;;;;;6.30;5.70;;;;;;;;;;6308230;22;20498;-87
2023/11/18 14:50:18;;;;;;;6.32;5.32;;;;;;;;;;6307801;22;20191;-86
2023/11/18 14:52:47;;;;;;;6.22;5.63;;;;;;;;;;6308192;22;20154;-87
2023/11/18 14:55:17;;;;;;;5.60;4.93;;;;;;;;;;6307983;22;20223;-86
2023/11/18 14:57:45;;;;;;;5.60;5.10;;;;;;;;;;6307830;22;20174;-87
2023/11/18 15:00:21;;;;;;;5.97;5.45;;;;;;;;;;6308139;22;20195;-87